Latest Weather Observations for Rutherglen

IDV60801

Issued at 6:32 am EST Thursday 18 July 2019 (issued every 10 minutes, with the page automatically refreshed every 10 minutes)

About weather observations | Map of weather stations | Latest weather observations for VIC | Other Formats
Station Details ID: 082039 Name: RUTHERGLEN RESEARCH Lat: -36.10 Lon: 146.51 Height: 175.0 m
Data from the previous 72 hours. | See also: Recent months at Rutherglen
Date/Time
EST
Temp
°C
App
Temp
°C
Dew
Point
°C
Rel
Hum
%
Delta-T
°C
Wind Press
QNH
hPa
Press
MSL
hPa
Rain since
9am
mm
Dir  Spd
km/h
Gust
km/h
Spd
kts
Gust
kts
18/03:00am 6.6 2.0 6.5 99 0.0 W 20 24 11 13 - - 1.8
18/02:30am 6.7 2.6 6.4 98 0.1 W 17 20 9 11 - - 1.8
18/02:00am 7.4 3.5 7.0 97 0.2 W 17 20 9 11 - - 1.8
18/01:30am 8.1 3.4 7.7 97 0.2 W 22 32 12 17 - - 1.8
18/01:00am 8.7 4.7 8.3 97 0.2 W 19 26 10 14 - - 1.8
18/12:30am 8.7 5.5 8.4 98 0.1 W 15 19 8 10 - - 1.8
18/12:00am 9.1 6.3 8.6 97 0.2 WNW 13 24 7 13 - - 1.8
 
Date/Time
EST
Temp
°C
App
Temp
°C
Dew
Point
°C
Rel
Hum
%
Delta-T
°C
Wind Press
QNH
hPa
Press
MSL
hPa
Rain since
9am
mm
Dir  Spd
km/h
Gust
km/h
Spd
kts
Gust
kts
17/11:30pm 9.6 5.5 8.7 94 0.4 W 20 26 11 14 - - 1.8
17/11:00pm 9.7 5.6 8.8 94 0.4 W 20 28 11 15 - - 1.8
17/10:30pm 9.6 6.2 9.3 98 0.1 WNW 17 24 9 13 - - 1.8
17/10:00pm 9.4 7.2 9.3 99 0.0 NW 11 17 6 9 - - 1.8
17/09:30pm 9.4 7.6 9.3 99 0.0 WNW 9 15 5 8 - - 1.6
17/09:00pm 9.5 6.9 9.4 99 0.1 WNW 13 20 7 11 - - 1.6
17/08:30pm 9.5 6.5 9.4 99 0.1 WNW 15 20 8 11 - - 1.2
17/08:00pm 9.6 6.2 9.3 98 0.1 WNW 17 22 9 12 - - 1.0
17/07:30pm 9.6 7.0 9.3 98 0.1 WNW 13 19 7 10 - - 1.0
17/07:00pm 9.7 7.9 9.6 99 0.1 WNW 9 15 5 8 - - 1.0
17/06:30pm 9.6 7.4 9.5 99 0.1 WNW 11 17 6 9 - - 1.0
17/06:00pm 9.7 6.8 9.6 99 0.1 WNW 15 19 8 10 - - 1.0
17/05:30pm 9.8 7.6 9.5 98 0.2 WNW 11 17 6 9 - - 1.0
17/05:00pm 10.5 7.8 8.9 90 0.8 WNW 13 20 7 11 - - 0.6
17/04:30pm 10.3 8.0 8.9 91 0.7 WNW 11 15 6 8 - - 0.6
17/04:00pm 10.3 7.1 8.4 88 0.9 WNW 15 24 8 13 - - 0.6
17/03:30pm 9.9 7.1 8.7 92 0.6 WSW 13 15 7 8 - - 0.4
17/03:00pm 10.2 7.2 7.8 85 1.2 NW 13 20 7 11 - - 0.2
17/02:30pm 11.1 7.6 7.0 76 2.0 NW 15 20 8 11 - - 0.0
17/02:00pm 10.6 8.5 8.2 85 1.2 NNW 9 13 5 7 - - 0.0
17/01:30pm 10.5 7.5 7.9 84 1.3 NNW 13 20 7 11 - - 0.0
17/01:00pm 9.8 7.7 8.1 89 0.8 NNW 9 17 5 9 - - 0.0
17/12:30pm 9.4 6.4 7.7 89 0.8 NW 13 20 7 11 - - 0.0
17/12:00pm 10.2 7.6 6.2 76 1.9 NW 9 13 5 7 - - 0.0
17/11:30am 10.3 7.0 6.6 78 1.8 NW 13 19 7 10 - - 0.0
17/11:00am 10.3 7.4 6.5 77 1.8 WNW 11 15 6 8 - - 0.0
17/10:30am 9.9 7.4 6.6 80 1.6 NW 9 13 5 7 - - 0.0
17/10:00am 9.7 7.2 8.0 89 0.8 WNW 11 17 6 9 - - 0.0
17/09:30am 7.9 6.1 7.8 99 0.0 NW 7 9 4 5 - - 0.0
17/09:00am 7.4 6.8 7.3 99 0.0 CALM 0 0 0 0 - - 0.2
17/08:30am 6.8 6.0 6.7 99 0.0 CALM 0 0 0 0 - - 0.2
17/08:00am 6.0 5.1 5.9 99 0.0 CALM 0 0 0 0 - - 0.2
17/07:30am 5.4 3.6 5.3 99 0.0 S 4 6 2 3 - - 0.2
17/07:00am 5.8 3.7 5.7 99 0.0 E 6 7 3 4 - - 0.2
17/06:30am 5.9 3.8 5.8 99 0.0 ESE 6 7 3 4 - - 0.2
17/06:00am 6.0 5.1 5.9 99 0.0 CALM 0 6 0 3 - - 0.2
17/05:30am 5.8 4.4 5.7 99 0.0 ESE 2 7 1 4 - - 0.2
17/05:00am 5.6 4.6 5.5 99 0.0 CALM 0 0 0 0 - - 0.2
17/04:30am 5.3 3.5 5.2 99 0.0 E 4 6 2 3 - - 0.2
17/04:00am 4.8 2.5 4.7 99 0.0 ENE 6 6 3 3 - - 0.2
17/03:30am 3.9 1.4 3.8 99 0.0 ENE 6 6 3 3 - - 0.2
17/03:00am 2.5 0.5 2.4 99 0.0 ENE 2 7 1 4 - - 0.2
17/02:30am 3.2 1.7 3.1 99 0.0 CALM 0 0 0 0 - - 0.2
17/02:00am 2.4 0.0 2.3 99 0.0 N 4 6 2 3 - - 0.2
17/01:30am 3.5 0.9 3.4 99 0.0 WNW 6 7 3 4 - - 0.2
17/01:00am 3.0 0.3 2.9 99 0.0 NNW 6 7 3 4 - - 0.2
17/12:30am 3.4 0.8 3.3 99 0.0 NNW 6 7 3 4 - - 0.2
17/12:00am 3.1 1.2 3.0 99 0.0 N 2 6 1 3 - - 0.2
 
Date/Time
EST
Temp
°C
App
Temp
°C
Dew
Point
°C
Rel
Hum
%
Delta-T
°C
Wind Press
QNH
hPa
Press
MSL
hPa
Rain since
9am
mm
Dir  Spd
km/h
Gust
km/h
Spd
kts
Gust
kts
16/11:30pm 2.9 1.0 2.8 99 0.0 N 2 6 1 3 - - 0.2
16/11:00pm 3.8 1.3 3.7 99 0.0 WNW 6 7 3 4 - - 0.2
16/10:30pm 4.1 2.8 4.0 99 0.0 CALM 0 0 0 0 - - 0.2
16/10:00pm 4.4 2.7 4.0 97 0.2 E 2 6 1 3 - - 0.2
16/09:30pm 6.6 5.0 6.3 98 0.1 NNW 4 7 2 4 - - 0.2
16/09:00pm 7.6 5.6 7.0 96 0.3 NW 7 11 4 6 - - 0.0
16/08:30pm 8.1 6.1 7.0 93 0.5 WNW 7 11 4 6 - - 0.0
16/08:00pm 9.1 6.5 7.9 92 0.6 W 11 13 6 7 - - 0.0
16/07:30pm 9.3 6.3 7.7 90 0.8 WSW 13 17 7 9 - - 0.0
16/07:00pm 10.1 8.4 8.2 88 0.9 NW 7 11 4 6 - - 0.0
16/06:30pm 10.3 7.8 8.1 86 1.1 WNW 11 15 6 8 - - 0.0
16/06:00pm 10.8 7.9 8.2 84 1.3 W 13 17 7 9 - - 0.0
16/05:30pm 11.1 8.6 8.3 83 1.4 WSW 11 15 6 8 - - 0.0
16/05:00pm 11.7 7.7 8.4 80 1.6 W 19 20 10 11 - - 0.0
16/04:30pm 12.1 8.1 8.2 77 1.9 W 19 26 10 14 - - 0.0
16/04:00pm 12.8 8.9 8.7 76 2.1 W 19 28 10 15 - - 0.0
16/03:30pm 12.8 8.9 8.5 75 2.2 W 19 28 10 15 - - 0.0
16/03:00pm 12.5 8.3 8.2 75 2.1 W 20 30 11 16 - - 0.0
16/02:30pm 12.1 8.0 8.8 80 1.7 W 20 28 11 15 - - 0.0
16/02:00pm 11.6 6.7 8.5 81 1.5 W 24 39 13 21 - - 0.0
16/01:30pm 11.6 7.2 8.8 83 1.4 W 22 33 12 18 - - 0.0
16/01:00pm 12.2 7.2 8.1 76 2.0 W 24 35 13 19 - - 0.0
16/12:30pm 12.4 8.6 9.1 80 1.7 W 19 26 10 14 - - 0.0
16/12:00pm 11.9 7.5 8.9 82 1.5 W 22 28 12 15 - - 0.0
16/11:30am 11.6 7.5 8.8 83 1.4 W 20 28 11 15 - - 0.0
16/11:00am 11.1 7.7 9.2 88 1.0 W 17 26 9 14 - - 0.0
16/10:30am 10.6 7.0 8.5 87 1.0 W 17 26 9 14 - - 0.0
16/10:00am 10.1 7.4 9.0 93 0.5 WSW 13 19 7 10 - - 0.0
16/09:30am 9.1 6.0 8.8 98 0.1 W 15 20 8 11 - - 0.0
16/09:00am 8.6 5.8 8.5 99 0.0 W 13 20 7 11 - - 0.0
16/08:30am 8.0 5.4 7.9 99 0.0 WNW 11 17 6 9 - - 0.0
16/08:00am 7.6 5.3 7.5 99 0.0 WNW 9 15 5 8 - - 0.0
16/07:30am 7.4 5.4 7.3 99 0.0 WNW 7 9 4 5 - - 0.0
16/07:00am 6.9 4.8 6.8 99 0.0 WNW 7 9 4 5 - - 0.0
16/06:30am 7.4 5.4 7.3 99 0.0 WNW 7 9 4 5 - - 0.0
16/06:00am 6.5 4.9 6.4 99 0.0 NW 4 7 2 4 - - 0.0
16/05:30am 6.1 5.2 6.0 99 0.0 CALM 0 0 0 0 - - 0.0
16/05:00am 5.6 4.6 5.5 99 0.0 CALM 0 0 0 0 - - 0.0
16/04:30am 5.8 4.8 5.7 99 0.0 CALM 0 0 0 0 - - 0.0
16/04:00am 6.4 5.6 6.3 99 0.0 CALM 0 0 0 0 - - 0.0
16/03:30am 7.0 5.1 6.9 99 0.0 SW 6 7 3 4 - - 0.0
16/03:00am 7.9 6.3 7.8 99 0.0 SSW 6 7 3 4 - - 0.0
16/02:30am 8.5 6.0 8.2 98 0.1 W 11 17 6 9 - - 0.0
16/02:00am 8.7 6.6 8.3 97 0.2 W 9 13 5 7 - - 0.0
16/01:30am 9.2 8.2 8.9 98 0.1 WNW 4 7 2 4 - - 0.0
16/01:00am 8.9 7.4 8.5 97 0.2 WNW 6 7 3 4 - - 0.0
16/12:30am 9.0 7.5 8.6 97 0.2 NW 6 9 3 5 - - 0.0
16/12:00am 8.6 6.4 8.0 96 0.3 WNW 9 11 5 6 - - 0.0
 
Date/Time
EST
Temp
°C
App
Temp
°C
Dew
Point
°C
Rel
Hum
%
Delta-T
°C
Wind Press
QNH
hPa
Press
MSL
hPa
Rain since
9am
mm
Dir  Spd
km/h
Gust
km/h
Spd
kts
Gust
kts
15/11:30pm 8.6 6.0 7.7 94 0.4 WNW 11 13 6 7 - - 0.0
15/11:00pm 9.1 6.1 7.9 92 0.6 W 13 15 7 8 - - 0.0
15/10:30pm 9.8 7.7 8.2 90 0.8 W 9 11 5 6 - - 0.0
15/10:00pm 10.3 7.8 8.2 87 1.0 WNW 11 15 6 8 - - 0.0
15/09:30pm 10.4 8.2 8.0 85 1.2 NW 9 13 5 7 - - 0.0
15/09:00pm 10.5 8.0 8.1 85 1.2 W 11 13 6 7 - - 0.0
15/08:30pm 10.5 8.6 7.6 82 1.4 WNW 7 11 4 6 - - 0.0
15/08:00pm 10.4 9.0 7.3 81 1.5 N 4 7 2 4 - - 0.0
15/07:30pm 10.6 8.3 7.3 80 1.6 W 9 11 5 6 - - 0.0
15/07:00pm 10.9 7.0 7.0 77 1.9 W 17 24 9 13 - - 0.0
15/06:30pm 11.0 7.4 6.9 76 2.0 W 15 20 8 11 - - 0.0
15/06:00pm 11.1 6.5 6.6 74 2.1 WSW 20 26 11 14 - - 0.0
15/05:30pm 10.9 6.5 6.6 75 2.0 W 19 26 10 14 - - 0.0
15/05:00pm 10.9 5.9 6.6 75 2.0 W 22 30 12 16 - - 0.0
15/04:30pm 10.8 6.1 6.2 73 2.2 WSW 20 28 11 15 - - 0.0
15/04:00pm 11.6 7.0 6.5 71 2.4 WSW 20 30 11 16 - - 0.0
15/03:30pm 12.3 7.0 6.6 68 2.7 WSW 24 33 13 18 - - 0.0
15/03:00pm 12.5 7.1 6.5 67 2.9 WSW 24 35 13 19 - - 0.0
15/02:30pm 12.3 6.8 6.1 66 2.9 WSW 24 32 13 17 - - 0.0
15/02:00pm 12.1 6.8 6.6 69 2.6 WSW 24 33 13 18 - - 0.0
15/01:30pm 12.5 7.8 7.8 73 2.3 WSW 22 32 12 17 - - 0.0
15/01:00pm 12.5 8.0 7.0 69 2.7 WSW 20 32 11 17 - - 0.0
15/12:30pm 12.0 6.4 7.1 72 2.4 WSW 26 35 14 19 - - 0.0
15/12:00pm 11.7 7.3 6.6 71 2.4 WSW 19 26 10 14 - - 0.0
15/11:30am 11.9 7.1 7.2 73 2.3 WSW 22 33 12 18 - - 0.0
15/11:00am 11.5 7.1 7.2 75 2.1 WSW 20 28 11 15 - - 0.0
15/10:30am 10.9 6.4 7.0 77 1.9 WSW 20 26 11 14 - - 0.0
15/10:00am 10.2 5.2 6.5 78 1.7 WSW 22 32 12 17 - - 0.0
15/09:30am 9.5 4.2 6.8 83 1.3 WSW 24 32 13 17 - - 0.0
15/09:00am 8.7 4.4 6.8 88 0.9 W 19 24 10 13 - - 0.2
15/08:30am 8.2 3.8 6.5 89 0.8 W 19 26 10 14 - - 0.2
15/08:00am 7.9 4.6 6.2 89 0.8 W 13 17 7 9 - - 0.2
15/07:30am 7.6 4.2 5.9 89 0.8 W 13 19 7 10 - - 0.2
15/07:00am 7.5 4.0 5.3 86 1.0 W 13 22 7 12 - - 0.2

Other formats

Comma delimited format used in spreadsheet applications
http://www.bom.gov.au/fwo/IDV60801/IDV60801.95837.axf

JavaScript Object Notation format (JSON) in row-major order
http://www.bom.gov.au/fwo/IDV60801/IDV60801.95837.json

Data quality

Most of these data are generated automatically and are frequently updated. Quality checks on data are not normally performed. It is possible for incorrect values to appear. Refer to information at About Latest Weather Observations and please check the disclaimer before using these data.